createdAt,value
2023-03-16T00:01:10.375Z,1.98
2023-03-16T00:03:41.795Z,1.96
2023-03-16T00:06:12.515Z,1.97
2023-03-16T00:08:44.142Z,2.01
2023-03-16T00:11:14.795Z,1.98
2023-03-16T00:13:47.302Z,2.09
2023-03-16T00:16:17.829Z,2.26
2023-03-16T00:18:48.558Z,2.13
2023-03-16T00:21:19.194Z,2.42
2023-03-16T00:23:49.778Z,2.30
2023-03-16T00:26:20.907Z,2.15
2023-03-16T00:28:55.235Z,2.08
2023-03-16T00:31:26.178Z,1.92
2023-03-16T00:33:56.960Z,1.76
2023-03-16T00:36:27.514Z,1.76
2023-03-16T00:38:58.070Z,1.99
2023-03-16T00:41:28.657Z,2.08
2023-03-16T00:44:02.030Z,2.10
2023-03-16T00:46:32.632Z,2.02
2023-03-16T00:49:03.812Z,1.27
2023-03-16T00:51:34.880Z,1.68
2023-03-16T00:54:06.480Z,1.79
2023-03-16T00:56:37.035Z,1.78
2023-03-16T00:59:09.782Z,1.54
2023-03-16T01:01:40.414Z,1.87
2023-03-16T01:04:11.869Z,1.93
2023-03-16T01:06:42.778Z,1.90
2023-03-16T01:09:15.709Z,1.69
2023-03-16T01:11:46.236Z,1.76
2023-03-16T01:14:18.589Z,1.79
2023-03-16T01:16:49.143Z,1.86
2023-03-16T01:19:19.631Z,1.73
2023-03-16T01:21:50.217Z,1.49
2023-03-16T01:24:20.861Z,1.55
2023-03-16T01:26:51.562Z,1.51
2023-03-16T01:29:27.175Z,1.49
2023-03-16T01:31:57.905Z,1.45
2023-03-16T01:34:28.522Z,1.44
2023-03-16T01:36:59.342Z,1.52
2023-03-16T01:39:30.175Z,1.73
2023-03-16T01:42:00.655Z,1.24
2023-03-16T01:44:35.951Z,1.89
2023-03-16T01:47:06.507Z,1.86
2023-03-16T01:49:39.518Z,1.86
2023-03-16T01:52:15.387Z,1.81
2023-03-16T01:54:49.382Z,1.77
2023-03-16T01:57:22.889Z,1.84
2023-03-16T01:59:57.741Z,1.94
2023-03-16T02:02:33.302Z,2.08
2023-03-16T02:05:07.044Z,2.09
2023-03-16T02:07:40.964Z,2.10
2023-03-16T02:10:13.998Z,2.06
2023-03-16T02:12:45.588Z,2.03
2023-03-16T02:15:18.106Z,2.05
2023-03-16T02:17:50.044Z,1.97
2023-03-16T02:20:36.099Z,1.95
2023-03-16T02:23:08.658Z,1.90
2023-03-16T02:25:49.185Z,2.18
2023-03-16T02:28:28.094Z,2.12
2023-03-16T02:31:01.094Z,2.15
2023-03-16T02:33:33.695Z,2.14
2023-03-16T02:36:04.590Z,2.09
2023-03-16T02:38:35.184Z,2.03
2023-03-16T02:41:14.670Z,1.96
2023-03-16T02:43:50.777Z,2.04
2023-03-16T02:46:24.530Z,2.05
2023-03-16T02:49:03.844Z,2.12
2023-03-16T02:51:34.629Z,2.16
2023-03-16T02:54:05.366Z,2.18
2023-03-16T02:56:35.872Z,2.28
2023-03-16T02:59:06.431Z,2.32
2023-03-16T03:01:39.004Z,2.30
2023-03-16T03:04:09.978Z,2.37
2023-03-16T03:06:40.885Z,1.85
2023-03-16T03:09:12.512Z,2.29
2023-03-16T03:11:43.353Z,2.22
2023-03-16T03:14:14.052Z,2.15
2023-03-16T03:16:47.535Z,2.13
2023-03-16T03:19:18.104Z,2.12
2023-03-16T03:21:48.665Z,2.13
2023-03-16T03:24:19.672Z,2.13
2023-03-16T03:26:50.223Z,2.15
2023-03-16T03:29:21.609Z,2.12
2023-03-16T03:31:53.925Z,2.22
2023-03-16T03:34:27.508Z,2.28
2023-03-16T03:36:58.261Z,2.33
2023-03-16T03:39:28.837Z,2.39
2023-03-16T03:41:59.440Z,2.51
2023-03-16T03:44:30.007Z,2.69
2023-03-16T03:47:02.361Z,2.34
2023-03-16T03:49:33.235Z,2.86
2023-03-16T03:52:05.949Z,3.21
2023-03-16T03:54:36.720Z,3.31
2023-03-16T03:57:08.119Z,3.39
2023-03-16T03:59:43.577Z,3.42
2023-03-16T04:02:16.747Z,3.44
2023-03-16T04:04:47.732Z,3.49
2023-03-16T04:07:18.392Z,3.62
2023-03-16T04:09:48.932Z,3.65
2023-03-16T04:12:19.492Z,3.58
2023-03-16T04:14:50.076Z,3.61
2023-03-16T04:17:22.222Z,3.58
2023-03-16T04:19:52.857Z,3.48
2023-03-16T04:22:24.200Z,3.28
2023-03-16T04:24:54.820Z,3.19
2023-03-16T04:27:25.401Z,3.13
2023-03-16T04:29:59.635Z,3.03
2023-03-16T04:32:32.596Z,2.94
2023-03-16T04:35:03.116Z,2.96
2023-03-16T04:37:35.330Z,3.09
2023-03-16T04:40:12.656Z,2.98
2023-03-16T04:42:43.175Z,2.91
2023-03-16T04:45:15.049Z,2.88
2023-03-16T04:47:47.146Z,2.92
2023-03-16T04:50:17.716Z,2.97
2023-03-16T04:52:48.289Z,3.05
2023-03-16T04:55:18.883Z,2.91
2023-03-16T04:57:49.396Z,2.82
2023-03-16T05:00:21.517Z,2.70
2023-03-16T05:02:54.285Z,2.40
2023-03-16T05:05:25.100Z,2.52
2023-03-16T05:07:55.551Z,2.53
2023-03-16T05:10:26.319Z,2.22
2023-03-16T05:12:57.632Z,2.51
2023-03-16T05:15:28.547Z,2.52
2023-03-16T05:18:00.732Z,2.27
2023-03-16T05:20:31.329Z,2.51
2023-03-16T05:23:01.891Z,2.51
2023-03-16T05:25:32.375Z,2.49
2023-03-16T05:28:03.033Z,2.45
2023-03-16T05:30:33.648Z,2.48
2023-03-16T05:33:05.948Z,2.47
2023-03-16T05:35:36.745Z,2.45
2023-03-16T05:38:10.731Z,2.23
2023-03-16T05:40:41.591Z,2.38
2023-03-16T05:43:12.068Z,2.24
2023-03-16T05:45:42.436Z,2.05
2023-03-16T05:48:14.696Z,2.09
2023-03-16T05:50:45.153Z,2.07
2023-03-16T05:53:16.259Z,2.13
2023-03-16T05:55:46.746Z,2.17
2023-03-16T05:58:17.230Z,2.19
2023-03-16T06:00:47.710Z,2.12
2023-03-16T06:03:19.836Z,2.30
2023-03-16T06:05:51.007Z,2.42
2023-03-16T06:08:21.456Z,2.45
2023-03-16T06:10:51.896Z,2.44
2023-03-16T06:13:22.444Z,2.11
2023-03-16T06:15:53.363Z,2.41
2023-03-16T06:18:25.468Z,2.37
2023-03-16T06:20:56.072Z,2.12
2023-03-16T06:23:26.517Z,1.80
2023-03-16T06:25:57.141Z,2.30
2023-03-16T06:28:28.239Z,2.05
2023-03-16T06:30:59.871Z,2.15
2023-03-16T06:33:32.409Z,1.75
2023-03-16T06:36:03.500Z,2.14
2023-03-16T06:38:34.502Z,1.90
2023-03-16T06:41:04.918Z,2.14
2023-03-16T06:43:35.406Z,2.43
2023-03-16T06:46:05.888Z,2.61
2023-03-16T06:48:38.046Z,2.64
2023-03-16T06:51:09.501Z,2.53
2023-03-16T06:53:40.054Z,2.36
2023-03-16T06:56:11.057Z,2.10
2023-03-16T06:58:41.574Z,1.97
2023-03-16T07:01:13.338Z,1.83
2023-03-16T07:03:45.433Z,1.82
2023-03-16T07:06:15.870Z,1.83
2023-03-16T07:08:46.429Z,1.76
2023-03-16T07:11:17.079Z,1.79
2023-03-16T07:13:47.712Z,1.80
2023-03-16T07:16:18.280Z,1.72
2023-03-16T07:18:50.250Z,1.77
2023-03-16T07:21:21.003Z,1.80
2023-03-16T07:23:51.517Z,1.82
2023-03-16T07:26:22.156Z,1.86
2023-03-16T07:28:52.733Z,1.98
2023-03-16T07:31:23.408Z,2.11
2023-03-16T07:33:55.692Z,2.14
2023-03-16T07:36:26.751Z,1.83
2023-03-16T07:38:57.386Z,2.32
2023-03-16T07:41:28.048Z,1.91
2023-03-16T07:43:59.249Z,2.29
2023-03-16T07:46:29.864Z,2.21
2023-03-16T07:49:02.213Z,2.26
2023-03-16T07:51:32.668Z,2.19
2023-03-16T07:54:03.093Z,2.10
2023-03-16T07:56:47.444Z,2.13
2023-03-16T07:59:20.954Z,2.09
2023-03-16T08:01:51.859Z,1.98
2023-03-16T08:04:28.937Z,1.87
2023-03-16T08:07:01.942Z,1.82
2023-03-16T08:09:32.365Z,1.79
2023-03-16T08:12:02.910Z,1.70
2023-03-16T08:14:36.433Z,1.67
2023-03-16T08:17:18.374Z,1.57
2023-03-16T08:19:50.472Z,1.50
2023-03-16T08:22:21.892Z,1.44
2023-03-16T08:24:53.276Z,1.32
2023-03-16T08:27:23.782Z,0.80
2023-03-16T08:29:58.583Z,0.43
2023-03-16T08:32:29.340Z,0.96
2023-03-16T08:35:01.525Z,0.88
2023-03-16T08:37:32.200Z,0.74
2023-03-16T08:40:06.238Z,0.59
2023-03-16T08:42:41.446Z,0.53
2023-03-16T08:45:14.403Z,0.52
2023-03-16T08:47:45.156Z,0.36
2023-03-16T08:50:17.589Z,0.39
2023-03-16T08:52:51.142Z,0.32
2023-03-16T08:55:21.838Z,0.24
2023-03-16T08:57:52.845Z,0.17
2023-03-16T09:00:24.431Z,0.10
2023-03-16T09:02:55.669Z,0.11
2023-03-16T09:05:29.385Z,0.10
2023-03-16T09:08:07.033Z,0.05
2023-03-16T09:10:39.958Z,-0.01
2023-03-16T09:13:13.300Z,-0.06
2023-03-16T09:15:43.861Z,-0.09
2023-03-16T09:18:14.601Z,-0.09
2023-03-16T09:20:48.630Z,-0.10
2023-03-16T09:23:19.588Z,-0.10
2023-03-16T09:25:55.661Z,-0.11
2023-03-16T09:28:26.247Z,-0.12
2023-03-16T09:30:57.666Z,-0.24
2023-03-16T09:33:29.720Z,-0.37
2023-03-16T09:36:07.175Z,-0.27
2023-03-16T09:38:38.303Z,-0.20
2023-03-16T09:41:12.417Z,-0.19
2023-03-16T09:44:02.927Z,-0.15
2023-03-16T09:46:39.638Z,-0.12
2023-03-16T09:49:12.394Z,-0.09
2023-03-16T09:51:52.212Z,-0.09
2023-03-16T09:54:34.345Z,-0.15
2023-03-16T09:57:09.545Z,-0.20
2023-03-16T09:59:40.025Z,-0.20
2023-03-16T10:02:32.420Z,-0.30
2023-03-16T10:05:10.664Z,-0.37
2023-03-16T10:07:53.170Z,-0.48
2023-03-16T10:10:43.202Z,-0.41
2023-03-16T10:13:19.640Z,-0.47
2023-03-16T10:15:51.991Z,-0.45
2023-03-16T10:18:26.042Z,-0.48
2023-03-16T10:20:57.586Z,-0.49
2023-03-16T10:23:30.231Z,-0.50
2023-03-16T10:26:01.454Z,-0.56
2023-03-16T10:28:34.643Z,-0.58
2023-03-16T10:31:05.838Z,-0.59
2023-03-16T10:33:38.573Z,-0.89
2023-03-16T10:36:35.494Z,-0.68
2023-03-16T10:39:34.347Z,-0.67
2023-03-16T10:42:04.868Z,-0.59
2023-03-16T10:44:42.490Z,-0.58
2023-03-16T10:47:25.776Z,-0.52
2023-03-16T10:49:56.552Z,-0.48
2023-03-16T10:52:34.213Z,-0.49
2023-03-16T10:55:13.872Z,-0.40
2023-03-16T10:57:52.298Z,-0.47
2023-03-16T11:00:32.931Z,-0.43
2023-03-16T11:03:03.833Z,-0.56
2023-03-16T11:05:37.067Z,-0.48
2023-03-16T11:08:14.521Z,-0.46
2023-03-16T11:10:56.013Z,-1.00
2023-03-16T11:13:35.949Z,-0.92
2023-03-16T11:16:20.166Z,-0.49
2023-03-16T11:19:15.837Z,-0.80
2023-03-16T11:22:01.376Z,-0.62
2023-03-16T11:24:42.728Z,-0.60
2023-03-16T11:27:49.772Z,-0.61
2023-03-16T11:30:31.822Z,-0.60
2023-03-16T11:33:05.106Z,-0.60
2023-03-16T11:35:59.226Z,-0.65
2023-03-16T11:38:37.101Z,-0.73
2023-03-16T11:41:10.189Z,-0.81
2023-03-16T11:43:58.049Z,-0.96
2023-03-16T11:46:31.783Z,-0.90
2023-03-16T11:49:33.363Z,-0.92
2023-03-16T11:52:16.351Z,-1.00
2023-03-16T11:55:04.088Z,-1.05
2023-03-16T11:57:51.743Z,-1.01
2023-03-16T12:00:33.539Z,-1.02
2023-03-16T12:03:41.126Z,-1.07
2023-03-16T12:06:25.758Z,-1.12
2023-03-16T12:09:15.395Z,-1.12
2023-03-16T12:11:57.644Z,-1.12
2023-03-16T12:14:33.083Z,-1.14
2023-03-16T12:17:17.294Z,-1.24
2023-03-16T12:19:52.950Z,-1.26
2023-03-16T12:22:28.538Z,-1.24
2023-03-16T12:24:59.129Z,-1.25
2023-03-16T12:27:40.174Z,-1.22
2023-03-16T12:30:31.144Z,-1.25
2023-03-16T12:33:30.723Z,-1.29
2023-03-16T12:36:09.159Z,-1.37
2023-03-16T12:38:48.500Z,-1.34
2023-03-16T12:41:34.586Z,-1.31
2023-03-16T12:44:18.295Z,-1.33
2023-03-16T12:46:58.577Z,-1.42
2023-03-16T12:49:34.913Z,-1.34
2023-03-16T12:52:08.188Z,-1.33
2023-03-16T12:54:41.235Z,-1.34
2023-03-16T12:57:17.727Z,-1.29
2023-03-16T12:59:51.494Z,-1.35
2023-03-16T13:02:30.591Z,-1.38
2023-03-16T13:05:05.835Z,-1.45
2023-03-16T13:07:44.411Z,-1.43
2023-03-16T13:10:17.500Z,-1.46
2023-03-16T13:12:52.407Z,-1.51
2023-03-16T13:15:41.336Z,-1.50
2023-03-16T13:18:28.590Z,-1.52
2023-03-16T13:21:03.293Z,-1.88
2023-03-16T13:24:04.633Z,-1.68
2023-03-16T13:26:44.255Z,-1.67
2023-03-16T13:29:26.815Z,-1.58
2023-03-16T13:32:00.001Z,-2.28
2023-03-16T13:34:36.113Z,-1.66
2023-03-16T13:37:18.160Z,-1.64
2023-03-16T13:39:56.066Z,-1.70
2023-03-16T13:42:28.210Z,-1.70
2023-03-16T13:45:00.175Z,-1.80
2023-03-16T13:47:31.525Z,-1.80
2023-03-16T13:50:03.466Z,-2.03
2023-03-16T13:52:38.401Z,-2.03
2023-03-16T13:55:37.380Z,-2.56
2023-03-16T13:58:08.923Z,-2.11
2023-03-16T14:00:40.565Z,-2.21
2023-03-16T14:03:17.040Z,-2.20
2023-03-16T14:05:48.497Z,-2.22
2023-03-16T14:08:23.494Z,-2.28
2023-03-16T14:11:00.618Z,-2.23
2023-03-16T14:13:39.144Z,-2.27
2023-03-16T14:16:17.515Z,-2.48
2023-03-16T14:18:52.868Z,-2.48
2023-03-16T14:21:26.582Z,-2.64
2023-03-16T14:24:02.905Z,-2.64
2023-03-16T14:26:43.852Z,-2.75
2023-03-16T14:29:33.229Z,-2.82
2023-03-16T14:32:04.209Z,-2.78
2023-03-16T14:34:38.011Z,-3.24
2023-03-16T14:37:10.607Z,-2.99
2023-03-16T14:39:43.269Z,-3.12
2023-03-16T14:42:22.341Z,-3.22
2023-03-16T14:44:53.234Z,-3.35
2023-03-16T14:47:27.666Z,-3.44
2023-03-16T14:50:00.210Z,-3.59
2023-03-16T14:52:33.852Z,-3.71
2023-03-16T14:55:18.399Z,-4.09
2023-03-16T14:57:50.331Z,-4.28
2023-03-16T15:00:22.901Z,-4.45
2023-03-16T15:03:03.981Z,-4.65
2023-03-16T15:05:38.024Z,-4.66
2023-03-16T15:08:10.413Z,-4.74
2023-03-16T15:10:42.713Z,-4.78
2023-03-16T15:13:35.372Z,-4.84
2023-03-16T15:16:06.695Z,-4.75
2023-03-16T15:18:38.486Z,-4.80
2023-03-16T15:21:14.687Z,-5.28
2023-03-16T15:23:46.327Z,-4.87
2023-03-16T15:26:24.462Z,-4.71
2023-03-16T15:28:55.505Z,-4.72
2023-03-16T15:31:26.305Z,-4.85
2023-03-16T15:33:56.804Z,-4.84
2023-03-16T15:36:27.563Z,-4.81
2023-03-16T15:38:58.394Z,-4.79
2023-03-16T15:41:41.453Z,-4.81
2023-03-16T15:44:17.612Z,-4.81
2023-03-16T15:46:48.854Z,-4.77
2023-03-16T15:49:22.825Z,-4.78
2023-03-16T15:51:53.703Z,-4.71
2023-03-16T15:54:24.617Z,-4.69
2023-03-16T15:57:01.436Z,-4.77
2023-03-16T15:59:38.934Z,-4.77
2023-03-16T16:02:31.195Z,-4.71
2023-03-16T16:05:03.208Z,-4.75
2023-03-16T16:07:33.953Z,-4.82
2023-03-16T16:10:06.288Z,-4.74
2023-03-16T16:12:39.243Z,-4.71
2023-03-16T16:15:22.707Z,-4.91
2023-03-16T16:18:19.426Z,-4.40
2023-03-16T16:20:47.328Z,-4.45
2023-03-16T16:23:18.945Z,-4.51
2023-03-16T16:25:50.518Z,-5.07
2023-03-16T16:28:25.389Z,-4.71
2023-03-16T16:30:57.059Z,-4.90
2023-03-16T16:33:31.147Z,-4.93
2023-03-16T16:36:03.426Z,-5.02
2023-03-16T16:38:35.119Z,-5.01
2023-03-16T16:41:11.137Z,-4.91
2023-03-16T16:43:45.624Z,-5.45
2023-03-16T16:46:18.220Z,-4.90
2023-03-16T16:48:51.438Z,-4.86
2023-03-16T16:51:25.752Z,-4.92
2023-03-16T16:53:57.970Z,-4.88
2023-03-16T16:56:32.070Z,-4.99
2023-03-16T16:59:16.308Z,-4.74
2023-03-16T17:01:51.684Z,-4.75
2023-03-16T17:04:26.583Z,-4.79
2023-03-16T17:06:59.723Z,-4.82
2023-03-16T17:09:32.769Z,-4.90
2023-03-16T17:12:04.268Z,-4.95
2023-03-16T17:14:36.847Z,-5.05
2023-03-16T17:17:16.969Z,-5.20
2023-03-16T17:19:47.672Z,-5.14
2023-03-16T17:22:25.352Z,-5.15
2023-03-16T17:24:56.462Z,-5.12
2023-03-16T17:27:32.665Z,-5.16
2023-03-16T17:30:05.337Z,-4.98
2023-03-16T17:32:38.901Z,-5.01
2023-03-16T17:35:22.596Z,-5.05
2023-03-16T17:37:53.139Z,-5.13
2023-03-16T17:40:27.770Z,-5.22
2023-03-16T17:42:58.425Z,-5.22
2023-03-16T17:45:31.461Z,-5.17
2023-03-16T17:48:02.185Z,-5.16
2023-03-16T17:50:35.953Z,-5.21
2023-03-16T17:53:06.612Z,-5.17
2023-03-16T17:55:37.551Z,-5.29
2023-03-16T17:58:08.688Z,-5.43
2023-03-16T18:00:43.219Z,-5.51
2023-03-16T18:03:16.206Z,-5.63
2023-03-16T18:05:49.376Z,-5.67
2023-03-16T18:08:22.628Z,-5.73
2023-03-16T18:10:59.269Z,-5.78
2023-03-16T18:13:33.461Z,-6.24
2023-03-16T18:16:07.062Z,-5.80
2023-03-16T18:18:40.885Z,-5.70
2023-03-16T18:21:19.633Z,-5.68
2023-03-16T18:23:50.333Z,-6.00
2023-03-16T18:26:21.407Z,-5.89
2023-03-16T18:28:54.319Z,-5.84
2023-03-16T18:31:28.100Z,-5.83
2023-03-16T18:34:08.636Z,-5.84
2023-03-16T18:36:40.671Z,-5.79
2023-03-16T18:39:21.249Z,-5.71
2023-03-16T18:41:53.504Z,-5.73
2023-03-16T18:44:26.670Z,-5.94
2023-03-16T18:47:04.040Z,-5.80
2023-03-16T18:49:37.375Z,-5.85
2023-03-16T18:52:19.767Z,-5.90
2023-03-16T18:54:54.154Z,-6.00
2023-03-16T18:57:25.931Z,-5.85
2023-03-16T18:59:56.965Z,-5.83
2023-03-16T19:02:38.155Z,-5.88
2023-03-16T19:05:13.951Z,-5.99
2023-03-16T19:07:47.221Z,-5.89
2023-03-16T19:10:25.375Z,-5.87
2023-03-16T19:12:56.334Z,-6.00
2023-03-16T19:15:29.071Z,-5.98
2023-03-16T19:18:01.950Z,-5.88
2023-03-16T19:20:35.098Z,-5.98
2023-03-16T19:23:08.980Z,-6.02
2023-03-16T19:25:42.242Z,-6.69
2023-03-16T19:28:17.966Z,-5.93
2023-03-16T19:30:48.495Z,-5.88
2023-03-16T19:33:26.575Z,-5.95
2023-03-16T19:35:59.619Z,-6.10
2023-03-16T19:38:30.616Z,-6.25
2023-03-16T19:41:03.358Z,-6.17
2023-03-16T19:43:34.002Z,-6.30
2023-03-16T19:46:04.809Z,-6.37
2023-03-16T19:48:39.943Z,-6.31
2023-03-16T19:51:13.480Z,-6.38
2023-03-16T19:53:44.607Z,-6.58
2023-03-16T19:56:20.622Z,-6.80
2023-03-16T19:59:04.607Z,-6.91
2023-03-16T20:01:35.993Z,-7.21
2023-03-16T20:04:08.856Z,-7.00
2023-03-16T20:06:39.386Z,-7.08
2023-03-16T20:09:09.878Z,-7.03
2023-03-16T20:11:40.449Z,-7.06
2023-03-16T20:14:22.771Z,-6.98
2023-03-16T20:16:53.916Z,-7.01
2023-03-16T20:19:26.085Z,-6.99
2023-03-16T20:21:56.547Z,-7.00
2023-03-16T20:24:29.644Z,-7.25
2023-03-16T20:27:00.503Z,-7.12
2023-03-16T20:29:33.557Z,-7.04
2023-03-16T20:32:05.576Z,-7.09
2023-03-16T20:34:37.823Z,-7.10
2023-03-16T20:37:22.740Z,-7.08
2023-03-16T20:39:53.825Z,-7.21
2023-03-16T20:42:28.644Z,-7.26
2023-03-16T20:44:59.242Z,-7.31
2023-03-16T20:47:30.330Z,-7.18
2023-03-16T20:50:02.437Z,-7.21
2023-03-16T20:52:33.174Z,-7.27
2023-03-16T20:55:03.724Z,-7.22
2023-03-16T20:57:34.644Z,-7.28
2023-03-16T21:00:06.347Z,-7.30
2023-03-16T21:02:37.446Z,-7.46
2023-03-16T21:05:10.647Z,-7.23
2023-03-16T21:07:41.413Z,-7.17
2023-03-16T21:10:13.687Z,-7.19
2023-03-16T21:12:47.267Z,-6.97
2023-03-16T21:15:26.051Z,-6.99
2023-03-16T21:18:00.355Z,-7.00
2023-03-16T21:20:34.710Z,-6.97
2023-03-16T21:23:05.823Z,-6.84
2023-03-16T21:25:40.302Z,-6.80
2023-03-16T21:28:13.652Z,-6.58
2023-03-16T21:30:48.444Z,-6.48
2023-03-16T21:33:24.538Z,-6.38
2023-03-16T21:35:57.110Z,-6.31
2023-03-16T21:38:27.911Z,-6.33
2023-03-16T21:40:58.838Z,-6.35
2023-03-16T21:43:29.516Z,-5.92
2023-03-16T21:46:00.446Z,-5.87
2023-03-16T21:48:38.297Z,-5.76
2023-03-16T21:51:17.043Z,-5.62
2023-03-16T21:53:48.762Z,-5.71
2023-03-16T21:56:21.458Z,-5.60
2023-03-16T21:58:53.065Z,-5.41
2023-03-16T22:01:26.450Z,-5.21
2023-03-16T22:03:59.714Z,-5.20
2023-03-16T22:06:32.128Z,-5.36
2023-03-16T22:09:03.864Z,-5.04
2023-03-16T22:11:34.600Z,-5.03
2023-03-16T22:14:05.594Z,-4.91
2023-03-16T22:16:38.827Z,-4.71
2023-03-16T22:19:15.370Z,-4.54
2023-03-16T22:21:49.292Z,-4.48
2023-03-16T22:24:23.189Z,-4.36
2023-03-16T22:26:54.549Z,-4.08
2023-03-16T22:29:27.184Z,-3.96
2023-03-16T22:32:00.568Z,-3.80
2023-03-16T22:34:34.505Z,-3.77
2023-03-16T22:37:07.608Z,-3.50
2023-03-16T22:39:40.472Z,-3.56
2023-03-16T22:42:29.623Z,-3.00
2023-03-16T22:45:00.397Z,-2.96
2023-03-16T22:47:33.794Z,-2.59
2023-03-16T22:50:04.428Z,-2.34
2023-03-16T22:52:38.011Z,-2.03
2023-03-16T22:55:09.979Z,-1.85
2023-03-16T22:57:40.580Z,-1.70
2023-03-16T23:00:14.936Z,-1.70
2023-03-16T23:02:45.872Z,-1.26
2023-03-16T23:05:25.416Z,-1.73
2023-03-16T23:07:58.668Z,-1.15
2023-03-16T23:10:30.912Z,-0.77
2023-03-16T23:13:02.976Z,-0.67
2023-03-16T23:24:07.567Z,0.68
2023-03-16T23:26:38.261Z,0.71
2023-03-16T23:29:08.849Z,0.77
2023-03-16T23:31:40.162Z,0.83
2023-03-16T23:34:13.728Z,0.94
2023-03-16T23:36:44.237Z,1.16
2023-03-16T23:39:16.351Z,1.58
2023-03-16T23:41:49.386Z,1.88
2023-03-16T23:44:22.311Z,1.96
2023-03-16T23:46:53.344Z,1.83
2023-03-16T23:49:26.933Z,1.47
2023-03-16T23:52:00.463Z,1.24
2023-03-16T23:54:34.397Z,1.56
2023-03-16T23:57:04.849Z,1.66
2023-03-16T23:59:35.441Z,1.46
